createdAt,value
2017-06-28T00:00:37.818Z,994.66
2017-06-28T00:01:39.110Z,994.61
2017-06-28T00:02:40.645Z,994.58
2017-06-28T00:03:41.903Z,994.54
2017-06-28T00:04:43.210Z,994.58
2017-06-28T00:05:44.643Z,994.45
2017-06-28T00:06:45.958Z,994.45
2017-06-28T00:07:47.212Z,994.43
2017-06-28T00:08:48.797Z,994.42
2017-06-28T00:09:49.954Z,994.41
2017-06-28T00:10:51.215Z,994.34
2017-06-28T00:11:52.487Z,994.37
2017-06-28T00:12:53.738Z,994.36
2017-06-28T00:13:54.969Z,994.36
2017-06-28T00:14:56.302Z,994.3
2017-06-28T00:15:57.953Z,994.24
2017-06-28T00:16:59.125Z,994.26
2017-06-28T00:18:00.425Z,994.25
2017-06-28T00:19:01.668Z,994.2
2017-06-28T00:20:03.030Z,994.19
2017-06-28T00:21:04.321Z,994.21
2017-06-28T00:22:05.576Z,994.2
2017-06-28T00:23:07.065Z,994.16
2017-06-28T00:24:08.546Z,994.18
2017-06-28T00:25:09.849Z,994.16
2017-06-28T00:26:11.086Z,994.15
2017-06-28T00:27:12.399Z,994.1
2017-06-28T00:28:13.664Z,994.09
2017-06-28T00:29:14.931Z,994.04
2017-06-28T00:30:16.214Z,994.03
2017-06-28T00:31:17.599Z,994.02
2017-06-28T00:32:19.022Z,993.99
2017-06-28T00:33:20.305Z,993.96
2017-06-28T00:34:21.579Z,993.97
2017-06-28T00:35:22.877Z,993.93
2017-06-28T00:36:24.130Z,993.91
2017-06-28T00:37:25.408Z,993.93
2017-06-28T00:38:26.711Z,993.92
2017-06-28T00:39:27.937Z,993.87
2017-06-28T00:40:29.262Z,993.88
2017-06-28T00:41:30.579Z,993.87
2017-06-28T00:42:31.864Z,993.83
2017-06-28T00:43:33.099Z,993.82
2017-06-28T00:44:34.537Z,993.8
2017-06-28T00:45:35.793Z,993.81
2017-06-28T00:46:37.154Z,993.77
2017-06-28T00:47:38.467Z,993.71
2017-06-28T00:48:39.839Z,993.7
2017-06-28T00:49:41.267Z,993.69
2017-06-28T00:50:42.525Z,993.62
2017-06-28T00:51:43.761Z,993.6
2017-06-28T00:52:45.052Z,993.63
2017-06-28T00:53:46.419Z,993.59
2017-06-28T00:54:47.646Z,993.59
2017-06-28T00:55:48.893Z,993.61
2017-06-28T00:56:50.140Z,993.61
2017-06-28T00:57:51.400Z,993.59
2017-06-28T00:58:52.689Z,993.53
2017-06-28T00:59:53.928Z,993.52
2017-06-28T01:00:55.225Z,993.53
2017-06-28T01:01:56.484Z,993.49
2017-06-28T01:02:57.723Z,993.46
2017-06-28T01:03:59.069Z,993.46
2017-06-28T01:05:00.339Z,993.42
2017-06-28T01:06:01.620Z,993.39
2017-06-28T01:07:02.899Z,993.33
2017-06-28T01:08:04.218Z,993.33
2017-06-28T01:09:05.500Z,993.36
2017-06-28T01:10:06.746Z,993.3
2017-06-28T01:11:08.023Z,993.31
2017-06-28T01:12:09.276Z,993.25
2017-06-28T01:13:10.609Z,993.3
2017-06-28T01:14:11.884Z,993.22
2017-06-28T01:15:13.158Z,993.2
2017-06-28T01:16:14.422Z,993.2
2017-06-28T01:17:15.695Z,993.22
2017-06-28T01:18:16.960Z,993.21
2017-06-28T01:19:18.215Z,993.2
2017-06-28T01:20:19.498Z,993.23
2017-06-28T01:21:20.735Z,993.25
2017-06-28T01:22:22.316Z,993.23
2017-06-28T01:23:23.483Z,993.22
2017-06-28T01:24:24.764Z,993.22
2017-06-28T01:25:26.018Z,993.19
2017-06-28T01:26:27.302Z,993.21
2017-06-28T01:27:28.545Z,993.23
2017-06-28T01:28:29.800Z,993.2
2017-06-28T01:29:31.060Z,993.23
2017-06-28T01:30:32.390Z,993.22
2017-06-28T01:31:33.686Z,993.22
2017-06-28T01:32:34.930Z,993.2
2017-06-28T01:33:36.201Z,993.22
2017-06-28T01:34:37.463Z,993.2
2017-06-28T01:35:38.782Z,993.18
2017-06-28T01:36:40.104Z,993.21
2017-06-28T01:37:41.592Z,993.18
2017-06-28T01:38:42.885Z,993.25
2017-06-28T01:39:44.254Z,993.24
2017-06-28T01:40:45.545Z,993.24
2017-06-28T01:41:46.800Z,993.21
2017-06-28T01:42:48.099Z,993.2
2017-06-28T01:43:49.456Z,993.16
2017-06-28T01:44:50.689Z,993.15
2017-06-28T01:45:52.044Z,993.14
2017-06-28T01:46:53.264Z,993.18
2017-06-28T01:47:54.550Z,993.15
2017-06-28T01:48:55.810Z,993.15
2017-06-28T01:49:57.120Z,993.11
2017-06-28T01:50:58.425Z,993.11
2017-06-28T01:51:59.918Z,993.08
2017-06-28T01:53:01.204Z,993.06
2017-06-28T01:54:02.468Z,993.04
2017-06-28T01:55:03.783Z,993.03
2017-06-28T01:56:05.104Z,993.01
2017-06-28T01:57:06.418Z,992.96
2017-06-28T01:58:07.774Z,992.97
2017-06-28T01:59:09.195Z,992.94
2017-06-28T02:00:10.494Z,992.92
2017-06-28T02:01:11.776Z,992.92
2017-06-28T02:02:13.031Z,992.91
2017-06-28T02:03:14.364Z,992.89
2017-06-28T02:04:15.667Z,992.92
2017-06-28T02:05:16.917Z,992.89
2017-06-28T02:06:18.244Z,992.9
2017-06-28T02:07:19.519Z,992.9
2017-06-28T02:08:20.794Z,992.87
2017-06-28T02:09:22.077Z,992.85
2017-06-28T02:10:23.348Z,992.86
2017-06-28T02:11:24.633Z,992.85
2017-06-28T02:12:25.881Z,992.81
2017-06-28T02:13:27.312Z,992.76
2017-06-28T02:14:28.608Z,992.79
2017-06-28T02:15:29.895Z,992.79
2017-06-28T02:16:31.180Z,992.8
2017-06-28T02:17:32.458Z,992.79
2017-06-28T02:18:33.773Z,992.78
2017-06-28T02:19:35.094Z,992.74
2017-06-28T02:20:36.505Z,992.7
2017-06-28T02:21:37.813Z,992.68
2017-06-28T02:22:39.092Z,992.66
2017-06-28T02:23:40.486Z,992.59
2017-06-28T02:24:41.729Z,992.57
2017-06-28T02:25:42.987Z,992.55
2017-06-28T02:26:44.315Z,992.53
2017-06-28T02:27:45.556Z,992.52
2017-06-28T02:28:46.868Z,992.48
2017-06-28T02:29:48.137Z,992.49
2017-06-28T02:30:49.560Z,992.45
2017-06-28T02:31:50.718Z,992.44
2017-06-28T02:32:52.019Z,992.44
2017-06-28T02:33:53.323Z,992.46
2017-06-28T02:34:54.683Z,992.49
2017-06-28T02:35:55.970Z,992.47
2017-06-28T02:36:57.204Z,992.46
2017-06-28T02:37:58.460Z,992.41
2017-06-28T02:38:59.701Z,992.39
2017-06-28T02:40:01.004Z,992.41
2017-06-28T02:41:02.399Z,992.34
2017-06-28T02:42:03.744Z,992.36
2017-06-28T02:43:05.041Z,992.33
2017-06-28T02:44:06.294Z,992.31
2017-06-28T02:45:07.620Z,992.32
2017-06-28T02:46:08.952Z,992.36
2017-06-28T02:47:10.343Z,992.39
2017-06-28T02:48:11.644Z,992.48
2017-06-28T02:49:12.986Z,992.49
2017-06-28T02:50:14.277Z,992.49
2017-06-28T02:51:15.529Z,992.52
2017-06-28T02:52:16.889Z,992.52
2017-06-28T02:53:18.187Z,992.49
2017-06-28T02:54:19.478Z,992.48
2017-06-28T02:55:20.769Z,992.54
2017-06-28T02:56:22.048Z,992.47
2017-06-28T02:57:23.364Z,992.42
2017-06-28T02:58:24.681Z,992.37
2017-06-28T02:59:25.973Z,992.32
2017-06-28T03:00:27.314Z,992.34
2017-06-28T03:01:28.573Z,992.34
2017-06-28T03:02:29.868Z,992.28
2017-06-28T03:03:31.125Z,992.26
2017-06-28T03:04:32.441Z,992.22
2017-06-28T03:05:33.775Z,992.29
2017-06-28T03:06:35.094Z,992.24
2017-06-28T03:07:36.369Z,992.22
2017-06-28T03:08:37.637Z,992.17
2017-06-28T03:09:38.964Z,992.25
2017-06-28T03:10:40.190Z,992.21
2017-06-28T03:11:41.490Z,992.2
2017-06-28T03:12:42.756Z,992.24
2017-06-28T03:13:44.000Z,992.2
2017-06-28T03:14:45.317Z,992.11
2017-06-28T03:15:46.714Z,992.12
2017-06-28T03:16:47.985Z,992.08
2017-06-28T03:17:49.232Z,992.09
2017-06-28T03:18:50.521Z,992.06
2017-06-28T03:19:51.742Z,992.08
2017-06-28T03:20:53.169Z,992.04
2017-06-28T03:21:54.440Z,992.05
2017-06-28T03:22:55.685Z,992.02
2017-06-28T03:23:56.996Z,991.95
2017-06-28T03:24:58.326Z,991.91
2017-06-28T03:25:59.597Z,991.91
2017-06-28T03:27:00.851Z,991.92
2017-06-28T03:28:02.102Z,991.94
2017-06-28T03:29:03.345Z,991.91
2017-06-28T03:30:04.620Z,991.86
2017-06-28T03:31:05.884Z,991.86
2017-06-28T03:32:07.195Z,991.84
2017-06-28T03:33:08.477Z,991.82
2017-06-28T03:34:09.727Z,991.88
2017-06-28T03:35:11.015Z,991.86
2017-06-28T03:36:12.282Z,991.87
2017-06-28T03:37:13.533Z,991.88
2017-06-28T03:38:14.864Z,991.84
2017-06-28T03:39:16.252Z,991.82
2017-06-28T03:40:17.501Z,991.78
2017-06-28T03:41:18.790Z,991.74
2017-06-28T03:42:20.065Z,991.72
2017-06-28T03:43:21.421Z,991.72
2017-06-28T03:44:22.700Z,991.72
2017-06-28T03:45:23.939Z,991.71
2017-06-28T03:46:25.226Z,991.75
2017-06-28T03:47:26.457Z,991.8
2017-06-28T03:48:27.701Z,991.82
2017-06-28T03:49:28.960Z,991.76
2017-06-28T03:50:30.266Z,991.73
2017-06-28T03:51:31.522Z,991.74
2017-06-28T03:52:32.786Z,991.72
2017-06-28T03:53:34.051Z,991.7
2017-06-28T03:54:35.296Z,991.74
2017-06-28T03:55:36.620Z,991.7
2017-06-28T03:56:37.947Z,991.73
2017-06-28T03:57:39.212Z,991.75
2017-06-28T03:58:40.515Z,991.73
2017-06-28T03:59:41.764Z,991.77
2017-06-28T04:00:43.037Z,991.79
2017-06-28T04:01:44.294Z,991.8
2017-06-28T04:02:45.577Z,991.8
2017-06-28T04:03:46.811Z,991.77
2017-06-28T04:04:48.141Z,991.75
2017-06-28T04:05:49.358Z,991.72
2017-06-28T04:06:50.621Z,991.75
2017-06-28T04:07:51.841Z,991.74
2017-06-28T04:08:53.124Z,991.76
2017-06-28T04:09:54.374Z,991.77
2017-06-28T04:10:55.642Z,991.75
2017-06-28T04:11:56.912Z,991.73
2017-06-28T04:12:58.172Z,991.75
2017-06-28T04:13:59.442Z,991.68
2017-06-28T04:15:00.752Z,991.64
2017-06-28T04:16:02.114Z,991.59
2017-06-28T04:17:03.386Z,991.56
2017-06-28T04:18:04.616Z,991.52
2017-06-28T04:19:05.891Z,991.57
2017-06-28T04:20:07.217Z,991.53
2017-06-28T04:21:08.452Z,991.53
2017-06-28T04:22:09.721Z,991.49
2017-06-28T04:23:10.965Z,991.47
2017-06-28T04:24:12.246Z,991.46
2017-06-28T04:25:13.782Z,991.44
2017-06-28T04:26:15.043Z,991.42
2017-06-28T04:27:16.414Z,991.46
2017-06-28T04:28:17.693Z,991.46
2017-06-28T04:29:19.114Z,991.46
2017-06-28T04:30:20.392Z,991.47
2017-06-28T04:31:21.740Z,991.47
2017-06-28T04:32:22.976Z,991.42
2017-06-28T04:33:24.612Z,991.53
2017-06-28T04:34:25.771Z,991.48
2017-06-28T04:35:27.059Z,991.45
2017-06-28T04:36:28.373Z,991.49
2017-06-28T04:37:29.692Z,991.36
2017-06-28T04:38:30.989Z,991.38
2017-06-28T04:39:32.275Z,991.37
2017-06-28T04:40:33.570Z,991.37
2017-06-28T04:41:34.921Z,991.38
2017-06-28T04:42:36.239Z,991.35
2017-06-28T04:43:37.532Z,991.39
2017-06-28T04:44:38.814Z,991.38
2017-06-28T04:45:40.050Z,991.39
2017-06-28T04:46:41.500Z,991.37
2017-06-28T04:47:42.883Z,991.35
2017-06-28T04:48:44.103Z,991.39
2017-06-28T04:49:45.598Z,991.38
2017-06-28T04:50:47.002Z,991.4
2017-06-28T04:51:48.288Z,991.4
2017-06-28T04:52:49.637Z,991.42
2017-06-28T04:53:50.863Z,991.4
2017-06-28T04:54:52.113Z,991.43
2017-06-28T04:55:53.377Z,991.39
2017-06-28T04:56:54.673Z,991.34
2017-06-28T04:57:55.947Z,991.34
2017-06-28T04:58:57.209Z,991.3
2017-06-28T04:59:58.558Z,991.23
2017-06-28T05:00:59.818Z,991.22
2017-06-28T05:02:01.107Z,991.21
2017-06-28T05:03:02.441Z,991.22
2017-06-28T05:04:03.895Z,991.16
2017-06-28T05:05:05.159Z,991.21
2017-06-28T05:06:06.457Z,991.21
2017-06-28T05:07:07.682Z,991.19
2017-06-28T05:08:08.990Z,991.2
2017-06-28T05:09:10.309Z,991.2
2017-06-28T05:10:11.605Z,991.23
2017-06-28T05:11:12.803Z,991.15
2017-06-28T05:12:14.071Z,991.17
2017-06-28T05:13:15.356Z,991.16
2017-06-28T05:14:16.666Z,991.13
2017-06-28T05:15:18.060Z,991.13
2017-06-28T05:16:19.287Z,991.07
2017-06-28T05:17:20.604Z,991.16
2017-06-28T05:18:21.836Z,991.13
2017-06-28T05:19:23.156Z,991.14
2017-06-28T05:20:24.621Z,991.11
2017-06-28T05:21:25.904Z,991.22
2017-06-28T05:22:27.181Z,991.2
2017-06-28T05:23:28.440Z,991.14
2017-06-28T05:24:29.695Z,991.18
2017-06-28T05:25:31.108Z,991.19
2017-06-28T05:26:32.425Z,991.17
2017-06-28T05:27:33.702Z,991.2
2017-06-28T05:28:34.989Z,991.19
2017-06-28T05:29:36.240Z,991.21
2017-06-28T05:30:37.522Z,991.23
2017-06-28T05:31:38.782Z,991.13
2017-06-28T05:32:40.097Z,991.12
2017-06-28T05:33:41.381Z,991.16
2017-06-28T05:34:42.635Z,991.16
2017-06-28T05:35:43.908Z,991.13
2017-06-28T05:36:45.220Z,991.19
2017-06-28T05:37:46.494Z,991.15
2017-06-28T05:38:47.826Z,991.15
2017-06-28T05:39:49.068Z,991.2
2017-06-28T05:40:50.384Z,991.23
2017-06-28T05:41:51.667Z,991.21
2017-06-28T05:42:53.060Z,991.2
2017-06-28T05:43:54.458Z,991.28
2017-06-28T05:44:55.740Z,991.22
2017-06-28T05:45:57.028Z,991.28
2017-06-28T05:46:58.380Z,991.18
2017-06-28T05:47:59.732Z,991.22
2017-06-28T05:49:01.060Z,991.23
2017-06-28T05:50:02.393Z,991.19
2017-06-28T05:51:03.674Z,991.16
2017-06-28T05:52:04.917Z,991.17
2017-06-28T05:53:06.178Z,991.14
2017-06-28T05:54:07.445Z,991.12
2017-06-28T05:55:08.767Z,991.15
2017-06-28T05:56:10.052Z,991.17
2017-06-28T05:57:11.359Z,991.19
2017-06-28T05:58:12.629Z,991.18
2017-06-28T05:59:13.916Z,991.2
2017-06-28T06:00:15.185Z,991.15
2017-06-28T06:01:16.465Z,991.14
2017-06-28T06:02:17.734Z,991.19
2017-06-28T06:03:18.984Z,991.18
2017-06-28T06:04:20.209Z,991.25
2017-06-28T06:05:21.512Z,991.26
2017-06-28T06:06:22.879Z,991.28
2017-06-28T06:07:24.117Z,991.25
2017-06-28T06:08:25.407Z,991.26
2017-06-28T06:09:26.643Z,991.22
2017-06-28T06:10:27.931Z,991.21
2017-06-28T06:11:29.278Z,991.18
2017-06-28T06:12:30.581Z,991.19
2017-06-28T06:13:31.833Z,991.19
2017-06-28T06:14:33.101Z,991.18
2017-06-28T06:15:34.422Z,991.21
2017-06-28T06:16:35.755Z,991.24
2017-06-28T06:17:37.218Z,991.27
2017-06-28T06:18:38.514Z,991.31
2017-06-28T06:19:39.737Z,991.27
2017-06-28T06:20:41.018Z,991.29
2017-06-28T06:21:42.287Z,991.35
2017-06-28T06:22:43.590Z,991.29
2017-06-28T06:23:44.847Z,991.31
2017-06-28T06:24:46.151Z,991.35
2017-06-28T06:25:47.439Z,991.28
2017-06-28T06:26:48.679Z,991.3
2017-06-28T06:27:49.965Z,991.21
2017-06-28T06:28:51.282Z,991.23
2017-06-28T06:29:52.691Z,991.2
2017-06-28T06:30:53.958Z,991.14
2017-06-28T06:31:55.243Z,991.13
2017-06-28T06:32:56.482Z,991.15
2017-06-28T06:33:57.724Z,991.11
2017-06-28T06:34:59.020Z,991.06
2017-06-28T06:36:00.317Z,991.09
2017-06-28T06:37:01.576Z,991.08
2017-06-28T06:38:02.877Z,991.14
2017-06-28T06:39:04.198Z,991.06
2017-06-28T06:40:05.593Z,991.11
2017-06-28T06:41:06.902Z,991.07
2017-06-28T06:42:08.210Z,991.07
2017-06-28T06:43:09.554Z,991.08
2017-06-28T06:44:10.794Z,991.07
2017-06-28T06:45:12.125Z,991.09
2017-06-28T06:46:13.401Z,991.09
2017-06-28T06:47:14.667Z,991.09
2017-06-28T06:48:15.969Z,991.1
2017-06-28T06:49:17.262Z,991.03
2017-06-28T06:50:18.535Z,991.04
2017-06-28T06:51:19.818Z,991.04
2017-06-28T06:52:21.391Z,990.96
2017-06-28T06:53:22.574Z,990.94
2017-06-28T06:54:23.903Z,990.91
2017-06-28T06:55:25.180Z,990.91
2017-06-28T06:56:26.465Z,990.92
2017-06-28T06:57:27.786Z,990.89
2017-06-28T06:58:29.074Z,990.89
2017-06-28T06:59:30.548Z,990.94
2017-06-28T07:00:31.884Z,990.97
2017-06-28T07:01:33.115Z,990.94
2017-06-28T07:02:34.457Z,990.94
2017-06-28T07:03:35.714Z,990.91
2017-06-28T07:04:36.990Z,990.91
2017-06-28T07:05:38.242Z,990.92
2017-06-28T07:06:39.521Z,990.97
2017-06-28T07:07:40.831Z,990.99
2017-06-28T07:08:42.083Z,990.95
2017-06-28T07:09:43.348Z,990.99
2017-06-28T07:10:44.635Z,990.97
2017-06-28T07:11:45.892Z,990.92
2017-06-28T07:12:47.327Z,990.94
2017-06-28T07:13:48.596Z,990.93
2017-06-28T07:14:49.885Z,990.89
2017-06-28T07:15:51.167Z,990.9
2017-06-28T07:16:52.445Z,990.88
2017-06-28T07:17:53.742Z,990.86
2017-06-28T07:18:55.137Z,990.88
2017-06-28T07:19:56.477Z,990.84
2017-06-28T07:20:57.731Z,990.86
2017-06-28T07:21:58.992Z,990.9
2017-06-28T07:23:00.285Z,990.88
2017-06-28T07:24:01.748Z,990.97
2017-06-28T07:25:03.081Z,991.01
2017-06-28T07:26:04.398Z,990.98
2017-06-28T07:27:05.686Z,990.92
2017-06-28T07:28:06.994Z,990.98
2017-06-28T07:29:08.303Z,990.8
2017-06-28T07:30:09.575Z,990.76
2017-06-28T07:31:11.014Z,990.73
2017-06-28T07:32:12.323Z,990.74
2017-06-28T07:33:13.561Z,990.74
2017-06-28T07:34:14.855Z,990.72
2017-06-28T07:35:16.249Z,990.74
2017-06-28T07:36:17.424Z,990.74
2017-06-28T07:37:18.700Z,990.76
2017-06-28T07:38:19.971Z,990.75
2017-06-28T07:39:21.379Z,990.74
2017-06-28T07:40:22.692Z,990.77
2017-06-28T07:41:23.954Z,990.81
2017-06-28T07:42:25.220Z,990.75
2017-06-28T07:43:26.474Z,990.76
2017-06-28T07:44:27.759Z,990.73
2017-06-28T07:45:29.057Z,990.73
2017-06-28T07:46:30.417Z,990.74
2017-06-28T07:47:31.720Z,990.72
2017-06-28T07:48:33.211Z,990.72
2017-06-28T07:49:34.489Z,990.69
2017-06-28T07:50:35.745Z,990.67
2017-06-28T07:51:37.040Z,990.65
2017-06-28T07:52:38.275Z,990.63
2017-06-28T07:53:39.579Z,990.67
2017-06-28T07:54:40.803Z,990.69
2017-06-28T07:55:42.064Z,990.77
2017-06-28T07:56:43.347Z,990.77
2017-06-28T07:57:44.726Z,990.75
2017-06-28T07:58:46.059Z,990.78
2017-06-28T07:59:47.312Z,990.85
2017-06-28T08:00:48.566Z,990.87
2017-06-28T08:01:49.839Z,990.93
2017-06-28T08:02:51.120Z,990.95
2017-06-28T08:03:52.398Z,990.97
2017-06-28T08:04:53.671Z,990.93
2017-06-28T08:05:54.922Z,990.96
2017-06-28T08:06:56.234Z,991.13
2017-06-28T08:07:57.474Z,990.86
2017-06-28T08:08:58.808Z,990.81
2017-06-28T08:10:00.151Z,990.76
2017-06-28T08:11:01.375Z,990.74
2017-06-28T08:12:02.659Z,990.69
2017-06-28T08:13:03.943Z,990.71
2017-06-28T08:14:05.261Z,990.71
2017-06-28T08:15:06.661Z,990.74
2017-06-28T08:16:07.947Z,990.72
2017-06-28T08:17:09.250Z,990.69
2017-06-28T08:18:10.532Z,990.7
2017-06-28T08:19:11.799Z,990.75
2017-06-28T08:20:13.117Z,990.77
2017-06-28T08:21:14.402Z,990.83
2017-06-28T08:22:15.685Z,990.78
2017-06-28T08:23:16.980Z,990.73
2017-06-28T08:24:18.319Z,990.81
2017-06-28T08:25:19.582Z,990.79
2017-06-28T08:26:20.953Z,990.78
2017-06-28T08:27:22.370Z,990.78
2017-06-28T08:28:23.638Z,990.75
2017-06-28T08:29:24.888Z,990.8
2017-06-28T08:30:26.159Z,990.76
2017-06-28T08:31:27.480Z,990.72
2017-06-28T08:32:28.762Z,990.75
2017-06-28T08:33:30.014Z,990.81
2017-06-28T08:34:31.267Z,990.74
2017-06-28T08:35:32.538Z,990.67
2017-06-28T08:36:34.050Z,990.65
2017-06-28T08:37:35.300Z,990.69
2017-06-28T08:38:36.533Z,990.65
2017-06-28T08:39:37.788Z,990.65
2017-06-28T08:40:39.036Z,990.6
2017-06-28T08:41:40.309Z,990.62
2017-06-28T08:42:41.563Z,990.62
2017-06-28T08:43:42.888Z,990.61
2017-06-28T08:44:44.110Z,990.66
2017-06-28T08:45:45.398Z,990.62
2017-06-28T08:46:46.659Z,990.67
2017-06-28T08:47:47.903Z,990.61
2017-06-28T08:48:49.223Z,990.59
2017-06-28T08:49:50.500Z,990.59
2017-06-28T08:50:51.836Z,990.63
2017-06-28T08:51:53.085Z,990.59
2017-06-28T08:52:54.378Z,990.61
2017-06-28T08:53:55.674Z,990.58
2017-06-28T08:54:57.087Z,990.58
2017-06-28T08:55:58.531Z,990.59
2017-06-28T08:56:59.849Z,990.61
2017-06-28T08:58:01.151Z,990.63
2017-06-28T08:59:02.435Z,990.65
2017-06-28T09:00:03.689Z,990.68
2017-06-28T09:01:05.042Z,990.6
2017-06-28T09:02:06.341Z,990.6
2017-06-28T09:03:07.614Z,990.62
2017-06-28T09:04:08.914Z,990.65
2017-06-28T09:05:10.179Z,990.64
2017-06-28T09:06:11.477Z,990.62
2017-06-28T09:07:12.846Z,990.52
2017-06-28T09:08:14.201Z,990.54
2017-06-28T09:09:15.484Z,990.56
2017-06-28T09:10:16.810Z,990.5
2017-06-28T09:11:18.058Z,990.51
2017-06-28T09:12:19.318Z,990.49
2017-06-28T09:13:20.617Z,990.46
2017-06-28T09:14:21.901Z,990.46
2017-06-28T09:15:23.165Z,990.38
2017-06-28T09:16:24.462Z,990.38
2017-06-28T09:17:25.737Z,990.39
2017-06-28T09:18:27.061Z,990.41
2017-06-28T09:19:28.410Z,990.43
2017-06-28T09:20:29.662Z,990.48
2017-06-28T09:21:30.960Z,990.49
2017-06-28T09:22:32.215Z,990.47
2017-06-28T09:23:33.515Z,990.51
2017-06-28T09:24:34.925Z,990.67
2017-06-28T09:25:36.422Z,990.98
2017-06-28T09:26:37.687Z,990.76
2017-06-28T09:27:39.009Z,990.57
2017-06-28T09:28:40.253Z,990.45
2017-06-28T09:29:41.593Z,990.45
2017-06-28T09:30:42.855Z,990.5
2017-06-28T09:31:44.143Z,990.54
2017-06-28T09:32:45.490Z,990.42
2017-06-28T09:33:46.920Z,990.32
2017-06-28T09:34:48.197Z,990.32
2017-06-28T09:35:49.464Z,990.31
2017-06-28T09:36:50.799Z,990.3
2017-06-28T09:37:52.140Z,990.59
2017-06-28T09:38:53.533Z,990.56
2017-06-28T09:39:55.007Z,990.33
2017-06-28T09:40:56.222Z,990.24
2017-06-28T09:41:57.484Z,990.25
2017-06-28T09:42:58.807Z,990.16
2017-06-28T09:44:00.119Z,990.25
2017-06-28T09:45:01.406Z,990.32
2017-06-28T09:46:02.679Z,990.34
2017-06-28T09:47:03.953Z,990.29
2017-06-28T09:48:05.334Z,990.31
2017-06-28T09:49:06.629Z,990.39
2017-06-28T09:50:07.903Z,990.31
2017-06-28T09:51:09.224Z,990.35
2017-06-28T09:52:10.514Z,990.28
2017-06-28T09:53:11.762Z,990.25
2017-06-28T09:54:13.042Z,990.38
2017-06-28T09:55:14.331Z,990.4
2017-06-28T09:56:15.620Z,990.3
2017-06-28T09:57:16.965Z,990.26
2017-06-28T09:58:18.224Z,990.26
2017-06-28T09:59:19.582Z,990.14
2017-06-28T10:00:20.867Z,990.13
2017-06-28T10:01:22.234Z,990.04
2017-06-28T10:02:23.423Z,990.02
2017-06-28T10:03:24.779Z,990.02
2017-06-28T10:04:26.051Z,990.01
2017-06-28T10:05:27.411Z,989.99
2017-06-28T10:06:28.699Z,989.97
2017-06-28T10:07:29.990Z,989.96
2017-06-28T10:08:31.238Z,989.96
2017-06-28T10:09:32.490Z,989.94
2017-06-28T10:10:33.764Z,989.93
2017-06-28T10:11:35.012Z,989.94
2017-06-28T10:12:36.358Z,990
2017-06-28T10:13:37.534Z,990.01
2017-06-28T10:14:38.834Z,989.98
2017-06-28T10:15:40.120Z,989.96
2017-06-28T10:16:41.378Z,989.93
2017-06-28T10:17:42.679Z,989.88
2017-06-28T10:18:43.979Z,989.87
2017-06-28T10:19:45.490Z,989.86
2017-06-28T10:20:46.777Z,989.86
2017-06-28T10:21:48.032Z,989.85
2017-06-28T10:22:49.446Z,989.9
2017-06-28T10:23:51.019Z,989.86
2017-06-28T10:24:52.362Z,989.89
2017-06-28T10:25:53.670Z,989.87
2017-06-28T10:26:54.971Z,989.81
2017-06-28T10:27:56.339Z,989.82
2017-06-28T10:28:57.636Z,989.74
2017-06-28T10:29:59.018Z,989.72
2017-06-28T10:31:00.313Z,989.69
2017-06-28T10:32:01.675Z,989.65
2017-06-28T10:33:03.065Z,989.67
2017-06-28T10:34:04.356Z,989.68
2017-06-28T10:35:05.631Z,989.68
2017-06-28T10:36:07.122Z,989.73
2017-06-28T10:37:08.385Z,989.65
2017-06-28T10:38:09.659Z,989.61
2017-06-28T10:39:11.133Z,989.61
2017-06-28T10:40:12.428Z,989.6
2017-06-28T10:41:13.765Z,989.58
2017-06-28T10:42:15.073Z,989.6
2017-06-28T10:43:16.498Z,989.57
2017-06-28T10:44:17.842Z,989.57
2017-06-28T10:45:19.161Z,989.53
2017-06-28T10:46:20.471Z,989.55
2017-06-28T10:47:21.725Z,989.59
2017-06-28T10:48:23.029Z,989.61
2017-06-28T10:49:24.349Z,989.66
2017-06-28T10:50:25.705Z,989.67
2017-06-28T10:51:26.975Z,989.63
2017-06-28T10:52:28.275Z,989.65
2017-06-28T10:53:29.585Z,989.64
2017-06-28T10:54:30.807Z,989.68
2017-06-28T10:55:32.096Z,989.65
2017-06-28T10:56:33.360Z,989.65
2017-06-28T10:57:34.624Z,989.68
2017-06-28T10:58:35.891Z,989.65
2017-06-28T10:59:37.283Z,989.67
2017-06-28T11:00:38.722Z,989.67
2017-06-28T11:01:40.001Z,989.69
2017-06-28T11:02:41.297Z,989.68
2017-06-28T11:03:42.585Z,989.71
2017-06-28T11:04:43.849Z,989.67
2017-06-28T11:05:45.129Z,989.67
2017-06-28T11:06:46.467Z,989.65
2017-06-28T11:07:47.702Z,989.69
2017-06-28T11:08:48.993Z,989.71
2017-06-28T11:09:50.239Z,989.75
2017-06-28T11:10:51.549Z,989.76
2017-06-28T11:11:52.845Z,989.7
2017-06-28T11:12:54.120Z,989.75
2017-06-28T11:13:55.423Z,989.76
2017-06-28T11:14:56.777Z,989.8
2017-06-28T11:15:58.020Z,989.78
2017-06-28T11:16:59.439Z,989.8
2017-06-28T11:18:00.930Z,989.75
2017-06-28T11:19:02.217Z,989.73
2017-06-28T11:20:03.486Z,989.74
2017-06-28T11:21:04.857Z,989.78
2017-06-28T11:22:06.135Z,989.74
2017-06-28T11:23:07.421Z,989.73
2017-06-28T11:24:08.723Z,989.74
2017-06-28T11:25:10.011Z,989.68
2017-06-28T11:26:11.428Z,989.7
2017-06-28T11:27:12.764Z,989.7
2017-06-28T11:28:14.067Z,989.63
2017-06-28T11:29:15.354Z,989.64
2017-06-28T11:30:16.621Z,989.59
2017-06-28T11:31:17.950Z,989.62
2017-06-28T11:32:19.292Z,989.65
2017-06-28T11:33:20.535Z,989.62
2017-06-28T11:34:21.847Z,989.65
2017-06-28T11:35:23.124Z,989.61
2017-06-28T11:36:24.413Z,989.64
2017-06-28T11:37:25.702Z,989.59
2017-06-28T11:38:27.079Z,989.57
2017-06-28T11:39:28.360Z,989.56
2017-06-28T11:40:29.650Z,989.58
2017-06-28T11:41:31.126Z,989.58
2017-06-28T11:42:32.439Z,989.56
2017-06-28T11:43:33.719Z,989.57
2017-06-28T11:44:35.121Z,989.54
2017-06-28T11:45:36.424Z,989.58
2017-06-28T11:46:37.683Z,989.57
2017-06-28T11:47:38.995Z,989.6
2017-06-28T11:48:40.274Z,989.59
2017-06-28T11:49:41.532Z,989.54
2017-06-28T11:50:42.851Z,989.58
2017-06-28T11:51:44.176Z,989.56
2017-06-28T11:52:45.426Z,989.54
2017-06-28T11:53:46.723Z,989.5
2017-06-28T11:54:47.978Z,989.45
2017-06-28T11:55:49.349Z,989.47
2017-06-28T11:56:50.682Z,989.49
2017-06-28T11:57:51.942Z,989.44
2017-06-28T11:58:53.230Z,989.42
2017-06-28T11:59:54.514Z,989.44
2017-06-28T12:00:55.818Z,989.42
2017-06-28T12:01:57.246Z,989.43
2017-06-28T12:02:58.546Z,989.4
2017-06-28T12:03:59.865Z,989.4
2017-06-28T12:05:01.124Z,989.38
2017-06-28T12:06:02.414Z,989.41
2017-06-28T12:07:03.655Z,989.41
2017-06-28T12:08:05.052Z,989.46
2017-06-28T12:09:06.338Z,989.42
2017-06-28T12:10:07.614Z,989.46
2017-06-28T12:11:08.959Z,989.44
2017-06-28T12:12:10.205Z,989.41
2017-06-28T12:13:11.470Z,989.42
2017-06-28T12:14:12.769Z,989.4
2017-06-28T12:15:14.069Z,989.42
2017-06-28T12:16:15.426Z,989.41
2017-06-28T12:17:16.746Z,989.36
2017-06-28T12:18:18.208Z,989.38
2017-06-28T12:19:19.500Z,989.32
2017-06-28T12:20:20.785Z,989.33
2017-06-28T12:21:22.082Z,989.31
2017-06-28T12:22:23.428Z,989.35
2017-06-28T12:23:24.904Z,989.33
2017-06-28T12:24:26.396Z,989.34
2017-06-28T12:25:27.742Z,989.31
2017-06-28T12:26:29.063Z,989.29
2017-06-28T12:27:30.434Z,989.32
2017-06-28T12:28:31.684Z,989.32
2017-06-28T12:29:33.184Z,989.33
2017-06-28T12:30:34.475Z,989.31
2017-06-28T12:31:35.719Z,989.32
2017-06-28T12:32:37.011Z,989.31
2017-06-28T12:33:38.317Z,989.3
2017-06-28T12:34:39.551Z,989.27
2017-06-28T12:35:40.869Z,989.26
2017-06-28T12:36:42.127Z,989.22
2017-06-28T12:37:43.468Z,989.23
2017-06-28T12:38:44.814Z,989.23
2017-06-28T12:39:46.079Z,989.22
2017-06-28T12:40:47.413Z,989.2
2017-06-28T12:41:48.721Z,989.15
2017-06-28T12:42:50.123Z,989.2
2017-06-28T12:43:51.474Z,989.16
2017-06-28T12:44:52.773Z,989.16
2017-06-28T12:45:54.076Z,989.14
2017-06-28T12:46:55.320Z,989.14